ASIAQ
Weather Now
GREENLAND SURVEY
Sorting:
| Location |
Updated [WGT/WGST] |
Temperature [°C] |
Wind [m/s] |
Air pressure [hPa] |
Relative humidity [%] |
Precipitation [mm] |
| Present | Wind chill | Speed | Max |
| Qaanaaq | 06.09 07:00 | 3,1 | n/a | 1,1 ⇒ | 3,2 | 993 | 72 | 0,0 |
| Kitsissut | 06.09 07:00 | 1,7 | -2,9 | 5,1 ⇘ | 7,2 | 995 | 90 | n/a |
| Kitsissorsuit | 06.09 07:00 | 5,2 | -1,8 | 18,0 ⇖ | 21,6 | 996 | 95 | n/a |
| Upernavik | 06.09 07:00 | 8,2 | 1,4 | 25,7 ⇑ | 34,0 | 988 | 70 | 0,0 |
| Qaarsut | 06.09 07:00 | 7,7 | 3,0 | 10,7 ⇖ | 13,4 | 1000 | 71 | 0,0 |
| Nuussuaq | 06.09 07:00 | 6,0 | -0,4 | 16,5 ⇖ | 20,6 | 1004 | 85 | n/a |
| Qeqertarsuaq | 06.09 07:00 | 7,8 | 3,2 | 10,0 ⇐ | 12,6 | 1009 | 77 | 0,0 |
| Ilulissat | 06.09 07:00 | 6,9 | 5,4 | 2,2 ⇙ | 4,6 | 1008 | 72 | 0,0 |
| Qasigiannguit | 06.09 07:30 | n/a | n/a | 3,4 ⇓ | 5,0 | 1008 | 52 | n/a |
| Aasiaat | 06.09 07:00 | 7,0 | 3,6 | 5,5 ⇐ | 7,9 | 1005 | 82 | 0,1 |
| Kangerlussuaq | 06.09 07:00 | 3,9 | -0,6 | 6,1 ⇙ | 7,3 | 1006 | 54 | n/a |
| Sisimiut | 06.09 07:00 | 8,3 | 6,5 | 3,1 ⇖ | 5,1 | 1009 | 72 | 0,0 |
| Maniitsoq | 06.09 07:00 | 8,0 | 5,5 | 4,0 ⇖ | 5,3 | 1009 | 58 | 0,0 |
| Sioralik | 06.09 07:00 | 6,7 | 5,3 | 2,1 ⇑ | 2,6 | 1012 | 79 | n/a |
| Niaqornaa | 06.09 07:00 | 6,5 | 1,7 | 9,8 ⇙ | 12,0 | 1006 | 40 | n/a |
| Qeqertannguaq | 06.09 07:30 | n/a | n/a | 6,4 ⇖ | 7,2 | n/a | 63 | n/a |
| Kapisillit | 06.09 07:00 | 3,9 | -0,2 | 5,3 ⇐ | 7,3 | 1005 | 62 | 0,0 |
| Kuanninnguit | 06.09 07:00 | 7,4 | 6,5 | 1,6 ⇖ | 2,5 | 1006 | 52 | n/a |
| Nuuk City | 06.09 07:30 | n/a | n/a | 1,7 ⇖ | 2,3 | 1003 | 58 | n/a |
| Ukiiviit | 06.09 07:00 | 4,9 | 2,7 | 2,6 ⇘ | 3,1 | 1011 | 96 | n/a |
| Paamiut | 06.09 07:00 | 6,1 | 4,3 | 2,4 ⇖ | 2,8 | 1009 | 78 | 0,0 |
| Narsarsuaq | 06.09 07:00 | 2,2 | n/a | 0,1 ⇙ | 0,9 | 1010 | 82 | n/a |
| Narsaq | 06.09 07:00 | 3,8 | n/a | 0,8 ⇓ | 1,5 | 1010 | 86 | 0,0 |
| Nunarsuit | 06.09 07:00 | 4,6 | 3,4 | 1,5 ⇙ | 2,1 | 1010 | 96 | n/a |
| Upernaviarsuk | 06.09 07:00 | 3,3 | n/a | n/a | 2,8 | 1012 | 98 | n/a |
| Qaqortoq | 06.09 07:00 | 4,4 | n/a | 0,8 ⇖ | 1,8 | 1006 | 97 | 0,1 |
| Angisoq | 06.09 07:00 | 1,8 | -0,4 | 2,1 ⇘ | 2,6 | 1011 | 100 | n/a |
| Prins Christian Sund | 06.09 07:00 | 5,4 | 3,8 | 2,1 ⇘ | 3,1 | 1001 | 70 | n/a |
| Nanortalik | 06.09 07:00 | 3,9 | 2,0 | 2,1 ⇓ | 4,5 | 1012 | 100 | n/a |
| Ikermiuarsuk | 06.09 07:00 | 4,2 | 0,3 | 5,1 ⇓ | 5,7 | 1006 | 69 | n/a |
| Ikermit | 06.09 07:00 | 7,6 | 3,8 | 7,2 ⇘ | 10,3 | 999 | 41 | n/a |
| Kulusuk | 06.09 07:00 | 3,9 | 0,4 | 4,1 ⇗ | 4,9 | 1003 | 69 | n/a |
| Tasiilaq | 06.09 07:00 | 5,9 | 4,9 | 1,6 ⇖ | 3,0 | 1000 | 47 | 0,0 |
| Aputiteeq | 06.09 07:00 | 3,6 | n/a | 1,0 ⇑ | 1,5 | 1003 | 75 | n/a |
| Ittoqqortoormiit | 06.09 07:00 | 3,3 | -1,6 | 7,0 ⇐ | 8,7 | 992 | 84 | n/a |
| Nerlerit Inaat | 06.09 07:00 | 2,3 | n/a | 1,0 ⇐ | 2,0 | 999 | 73 | n/a |
| Daneborg | 06.09 07:00 | 2,4 | 0,3 | 2,0 ⇖ | 5,0 | 991 | 74 | n/a |
| Zackenberg | 05.09 11:00 | 5,3 | n/a | 1,7 ⇖ | 3,1 | 1001 | 40 | 0,0 |
| Danmarkshavn | 06.09 07:00 | 2,1 | n/a | n/a | 5,0 | 990 | 86 | n/a |
| Henrik Krøyer Holme | 06.09 07:00 | -4,0 | -6,4 | 2,0 ⇖ | 3,0 | 995 | 95 | n/a |
| Station Nord | 06.09 07:00 | -1,8 | -7,6 | 6,0 ⇗ | 7,0 | 991 | 75 | n/a |
| Kap Morris Jesup | 06.09 07:00 | -9,2 | n/a | n/a | n/a | 997 | 93 | n/a |
Advanced version ⤻
Data source - Operated by - Disclaimer ▼